Time;durP1;ratioP1;P1;durP2;ratioP2;P2;SDS_P1;SDS_P2;PMS_P1;PMS_P2;Temp;Humidity;BMP_temperature;BMP_pressure;BME280_temperature;BME280_humidity;BME280_pressure;Samples;Min_cycle;Max_cycle;Signal;HPM_P1;HPM_P2
2022/10/03 00:00:45;;;;;;;13.23;5.82;;;;;;;;;;5035836;28;20039;-83
2022/10/03 00:07:33;;;;;;;11.43;6.53;;;;;;;;;;4981378;28;20038;-82
2022/10/03 00:10:52;;;;;;;12.48;7.22;;;;;;;;;;5039171;28;20248;-83
2022/10/03 00:13:24;;;;;;;12.40;7.47;;;;;;;;;;5049899;28;20028;-78
2022/10/03 00:16:14;;;;;;;13.00;7.03;;;;;;;;;;5035922;28;20867;-78
2022/10/03 00:19:17;;;;;;;12.73;7.18;;;;;;;;;;5038746;28;20032;-80
2022/10/03 00:32:22;;;;;;;10.00;6.32;;;;;;;;;;5031436;28;20043;-77
2022/10/03 00:38:54;;;;;;;15.85;6.78;;;;;;;;;;4994376;28;20033;-82
2022/10/03 00:52:14;;;;;;;11.07;6.95;;;;;;;;;;5013841;28;20039;-79
2022/10/03 00:58:47;;;;;;;9.93;6.25;;;;;;;;;;5022049;28;20105;-83
2022/10/03 01:02:00;;;;;;;10.15;6.10;;;;;;;;;;5015793;28;20033;-80
2022/10/03 01:04:43;;;;;;;;;;;;;;;;;;5036072;28;20033;-82
2022/10/03 01:07:18;;;;;;;9.60;6.90;;;;;;;;;;5050049;28;19928;-81
2022/10/03 01:09:54;;;;;;;14.35;7.97;;;;;;;;;;5043725;28;20044;-82
2022/10/03 01:12:47;;;;;;;16.50;8.13;;;;;;;;;;5049385;28;20044;-83
2022/10/03 01:15:41;;;;;;;14.15;7.65;;;;;;;;;;5033482;28;20033;-83
2022/10/03 01:18:27;;;;;;;12.43;7.25;;;;;;;;;;5032710;28;20033;-83
2022/10/03 01:21:18;;;;;;;14.10;7.78;;;;;;;;;;5034137;28;20106;-82
2022/10/03 01:23:47;;;;;;;12.57;7.13;;;;;;;;;;5052628;28;20048;-82
2022/10/03 01:26:32;;;;;;;11.65;7.40;;;;;;;;;;5048771;28;20460;-83
2022/10/03 01:32:04;;;;;;;12.57;6.88;;;;;;;;;;5046691;28;20099;-82
2022/10/03 01:34:58;;;;;;;12.07;7.57;;;;;;;;;;5048469;28;20057;-83
2022/10/03 01:37:56;;;;;;;11.07;7.50;;;;;;;;;;5046244;28;20017;-82
2022/10/03 01:40:38;;;;;;;11.35;7.38;;;;;;;;;;5045953;28;20310;-84
2022/10/03 01:43:13;;;;;;;12.20;7.47;;;;;;;;;;5045032;28;20029;-81
2022/10/03 01:46:04;;;;;;;12.60;8.43;;;;;;;;;;5052806;28;20033;-79
2022/10/03 01:48:58;;;;;;;14.73;7.50;;;;;;;;;;5071447;28;20112;-80
2022/10/03 01:51:41;;;;;;;12.63;8.38;;;;;;;;;;5068814;28;20040;-81
2022/10/03 01:54:19;;;;;;;13.90;7.45;;;;;;;;;;5222691;22;20048;-83
2022/10/03 01:57:10;;;;;;;20.88;9.13;;;;;;;;;;5059044;28;20411;-82
2022/10/03 02:00:15;;;;;;;17.25;8.90;;;;;;;;;;5054086;28;20025;-83
2022/10/03 02:03:17;;;;;;;16.63;8.50;;;;;;;;;;5024785;28;20033;-83
2022/10/03 02:05:54;;;;;;;13.68;8.40;;;;;;;;;;5031985;28;20037;-80
2022/10/03 02:08:47;;;;;;;19.67;9.02;;;;;;;;;;5035172;28;20029;-81
2022/10/03 02:11:29;;;;;;;24.40;8.20;;;;;;;;;;5021157;28;20022;-82
2022/10/03 02:14:12;;;;;;;15.20;9.30;;;;;;;;;;5036712;28;20471;-82
2022/10/03 02:16:58;;;;;;;14.55;8.88;;;;;;;;;;5036991;28;20278;-83
2022/10/03 02:19:50;;;;;;;12.95;8.18;;;;;;;;;;5046856;28;20494;-82
2022/10/03 02:22:41;;;;;;;17.98;8.77;;;;;;;;;;5038095;28;20506;-79
2022/10/03 02:25:39;;;;;;;14.25;8.30;;;;;;;;;;5021689;28;20053;-80
2022/10/03 02:28:40;;;;;;;12.63;7.97;;;;;;;;;;5031661;28;20044;-82
2022/10/03 02:31:31;;;;;;;15.30;7.63;;;;;;;;;;5015874;28;20387;-81
2022/10/03 02:34:24;;;;;;;14.35;8.25;;;;;;;;;;5024405;28;20095;-82
2022/10/03 02:37:11;;;;;;;13.88;7.55;;;;;;;;;;4987254;28;20560;-80
2022/10/03 02:39:43;;;;;;;14.75;7.97;;;;;;;;;;5036468;28;20064;-79
2022/10/03 02:42:29;;;;;;;11.47;7.20;;;;;;;;;;5042417;28;20024;-82
2022/10/03 02:45:14;;;;;;;12.18;6.97;;;;;;;;;;5035197;28;20277;-81
2022/10/03 02:48:16;;;;;;;14.25;7.72;;;;;;;;;;5020522;28;20021;-78
2022/10/03 02:51:04;;;;;;;9.05;6.68;;;;;;;;;;5036465;28;20037;-81
2022/10/03 02:54:06;;;;;;;12.63;7.43;;;;;;;;;;5042246;28;20020;-83
2022/10/03 02:56:51;;;;;;;12.73;7.55;;;;;;;;;;5039435;28;20021;-83
2022/10/03 02:59:35;;;;;;;11.38;6.80;;;;;;;;;;5019721;28;20025;-81
2022/10/03 03:02:37;;;;;;;15.13;7.00;;;;;;;;;;5035422;28;20282;-80
2022/10/03 03:05:33;;;;;;;11.35;6.82;;;;;;;;;;5048532;28;20017;-81
2022/10/03 03:08:01;;;;;;;12.25;7.13;;;;;;;;;;5040002;28;20089;-83
2022/10/03 03:10:43;;;;;;;11.50;6.97;;;;;;;;;;5035621;28;20025;-82
2022/10/03 03:13:36;;;;;;;15.32;6.60;;;;;;;;;;5057590;28;20089;-80
2022/10/03 03:16:20;;;;;;;10.98;6.57;;;;;;;;;;5049859;28;20050;-82
2022/10/03 03:19:03;;;;;;;11.70;7.10;;;;;;;;;;5043348;28;20021;-82
2022/10/03 03:21:42;;;;;;;11.60;6.60;;;;;;;;;;5040934;28;20036;-78
2022/10/03 03:24:30;;;;;;;9.80;6.50;;;;;;;;;;5042866;28;20030;-81
2022/10/03 03:27:14;;;;;;;10.88;6.47;;;;;;;;;;5039813;28;20025;-81
2022/10/03 03:29:39;;;;;;;12.55;7.25;;;;;;;;;;5043564;28;20342;-81
2022/10/03 03:32:26;;;;;;;14.68;7.53;;;;;;;;;;5043887;28;20048;-77
2022/10/03 03:35:03;;;;;;;8.20;5.40;;;;;;;;;;5038770;22;20503;-80
2022/10/03 03:37:32;;;;;;;8.98;6.38;;;;;;;;;;5029548;28;20525;-79
2022/10/03 03:40:13;;;;;;;8.38;6.00;;;;;;;;;;5022684;28;20838;-79
2022/10/03 03:43:00;;;;;;;21.30;6.32;;;;;;;;;;5026463;28;20104;-80
2022/10/03 03:45:59;;;;;;;13.70;6.43;;;;;;;;;;5035242;28;20029;-80
2022/10/03 03:49:01;;;;;;;12.70;7.47;;;;;;;;;;5032086;28;20026;-80
2022/10/03 03:51:27;;;;;;;;;;;;;;;;;;5050872;28;20051;-79
2022/10/03 03:54:33;;;;;;;13.82;6.72;;;;;;;;;;5034971;28;20423;-79
2022/10/03 03:57:42;;;;;;;8.88;5.47;;;;;;;;;;4992964;28;20503;-79
2022/10/03 04:00:37;;;;;;;7.90;5.45;;;;;;;;;;5018342;28;20391;-79
2022/10/03 04:03:29;;;;;;;9.80;5.60;;;;;;;;;;5031041;28;20071;-79
2022/10/03 04:06:12;;;;;;;12.43;6.25;;;;;;;;;;5032656;28;20120;-79
2022/10/03 04:08:58;;;;;;;16.55;6.75;;;;;;;;;;5033026;28;20041;-78
2022/10/03 04:11:52;;;;;;;8.82;5.70;;;;;;;;;;5027053;28;20506;-80
2022/10/03 04:14:42;;;;;;;9.23;5.75;;;;;;;;;;5028082;28;20383;-79
2022/10/03 04:20:48;;;;;;;12.35;6.07;;;;;;;;;;5024687;28;20061;-79
2022/10/03 04:23:26;;;;;;;9.32;5.80;;;;;;;;;;5007563;28;20499;-80
2022/10/03 04:26:22;;;;;;;11.30;6.07;;;;;;;;;;5030203;28;20048;-80
2022/10/03 04:29:15;;;;;;;12.25;5.65;;;;;;;;;;5024510;28;20021;-79
2022/10/03 04:31:54;;;;;;;10.68;5.90;;;;;;;;;;4987331;28;20124;-79
2022/10/03 04:34:41;;;;;;;14.18;6.90;;;;;;;;;;4999560;28;20029;-79
2022/10/03 04:37:15;;;;;;;16.10;6.68;;;;;;;;;;5026311;28;20033;-79
2022/10/03 04:39:50;;;;;;;13.30;6.80;;;;;;;;;;5009237;28;20036;-79
2022/10/03 04:42:38;;;;;;;12.05;6.95;;;;;;;;;;5036060;28;20359;-78
2022/10/03 04:45:28;;;;;;;16.55;7.70;;;;;;;;;;5027993;28;20096;-79
2022/10/03 04:48:51;;;;;;;18.05;7.55;;;;;;;;;;5029006;28;20502;-78
2022/10/03 04:51:31;;;;;;;;;;;;;;;;;;4943141;28;20123;-79
2022/10/03 04:54:17;;;;;;;11.23;7.13;;;;;;;;;;4950722;28;19933;-80
2022/10/03 04:56:51;;;;;;;13.15;7.47;;;;;;;;;;5002020;28;20728;-80
2022/10/03 04:59:33;;;;;;;14.48;8.18;;;;;;;;;;5023914;28;20025;-80
2022/10/03 05:02:29;;;;;;;14.48;8.38;;;;;;;;;;5028859;28;20027;-80
2022/10/03 05:04:57;;;;;;;16.05;8.20;;;;;;;;;;5032223;28;20029;-79
2022/10/03 05:07:41;;;;;;;20.75;9.75;;;;;;;;;;5030454;28;20100;-80
2022/10/03 05:10:42;;;;;;;21.92;9.95;;;;;;;;;;5028773;28;20145;-80
2022/10/03 05:13:18;;;;;;;19.27;8.73;;;;;;;;;;5028057;28;20094;-79
2022/10/03 05:19:04;;;;;;;17.48;8.27;;;;;;;;;;5025465;28;20037;-80
2022/10/03 05:21:38;;;;;;;24.15;9.88;;;;;;;;;;5029104;28;20075;-80
2022/10/03 05:24:14;;;;;;;22.00;10.48;;;;;;;;;;5026235;28;20028;-79
2022/10/03 05:26:48;;;;;;;19.02;8.88;;;;;;;;;;5027705;28;20021;-80
2022/10/03 05:29:32;;;;;;;18.63;8.93;;;;;;;;;;5022810;28;20021;-79
2022/10/03 05:32:19;;;;;;;14.73;8.48;;;;;;;;;;5028036;28;20025;-79
2022/10/03 05:34:59;;;;;;;19.60;9.77;;;;;;;;;;5026650;28;20061;-78
2022/10/03 05:37:43;;;;;;;21.67;9.75;;;;;;;;;;5028424;28;20026;-79
2022/10/03 05:40:23;;;;;;;22.98;9.98;;;;;;;;;;5029183;28;20372;-79
2022/10/03 05:42:57;;;;;;;21.38;9.65;;;;;;;;;;5026465;28;20901;-79
2022/10/03 05:45:37;;;;;;;22.92;9.75;;;;;;;;;;5027436;28;20108;-78
2022/10/03 05:48:13;;;;;;;20.70;9.90;;;;;;;;;;5011953;28;20025;-78
2022/10/03 05:50:57;;;;;;;19.98;10.35;;;;;;;;;;5027345;28;20453;-80
2022/10/03 05:53:47;;;;;;;17.50;8.52;;;;;;;;;;5024833;28;20037;-80
2022/10/03 05:56:31;;;;;;;23.63;9.98;;;;;;;;;;5024804;28;20090;-79
2022/10/03 05:59:31;;;;;;;21.88;10.05;;;;;;;;;;5030492;28;20033;-80
2022/10/03 06:01:58;;;;;;;18.55;9.88;;;;;;;;;;5029044;28;20075;-79
2022/10/03 06:05:14;;;;;;;17.75;10.30;;;;;;;;;;5028577;28;20492;-78
2022/10/03 06:07:45;;;;;;;18.88;9.70;;;;;;;;;;4953382;28;20092;-80
2022/10/03 06:10:20;;;;;;;20.73;10.27;;;;;;;;;;4945802;29;20019;-79
2022/10/03 06:13:10;;;;;;;20.05;9.27;;;;;;;;;;4991936;28;20132;-79
2022/10/03 06:15:56;;;;;;;13.85;8.73;;;;;;;;;;5011344;28;20504;-79
2022/10/03 06:18:55;;;;;;;17.80;8.93;;;;;;;;;;5025589;28;20545;-78
2022/10/03 06:21:22;;;;;;;16.35;9.02;;;;;;;;;;5024521;28;20472;-78
2022/10/03 06:24:00;;;;;;;16.15;8.82;;;;;;;;;;5028282;28;20036;-81
2022/10/03 06:26:50;;;;;;;17.48;8.48;;;;;;;;;;5027661;28;20025;-78
2022/10/03 06:29:34;;;;;;;21.67;8.45;;;;;;;;;;5013915;28;20021;-81
2022/10/03 06:32:54;;;;;;;16.42;7.82;;;;;;;;;;5028303;28;20021;-81
2022/10/03 06:35:49;;;;;;;15.07;8.43;;;;;;;;;;4997186;28;21018;-78
2022/10/03 06:38:39;;;;;;;14.85;8.63;;;;;;;;;;5038270;28;20022;-79
2022/10/03 06:41:19;;;;;;;14.93;9.00;;;;;;;;;;5034979;28;20140;-79
2022/10/03 06:44:18;;;;;;;18.88;9.02;;;;;;;;;;5028562;28;20391;-78
2022/10/03 06:46:58;;;;;;;15.88;8.90;;;;;;;;;;5010440;28;20037;-81
2022/10/03 06:49:54;;;;;;;14.77;8.27;;;;;;;;;;5030149;28;20079;-80
2022/10/03 06:52:25;;;;;;;15.05;8.30;;;;;;;;;;5007131;28;20040;-80
2022/10/03 06:55:20;;;;;;;14.85;8.43;;;;;;;;;;5028442;28;20036;-79
2022/10/03 06:58:16;;;;;;;22.27;8.35;;;;;;;;;;5021081;28;20037;-79
2022/10/03 07:00:53;;;;;;;16.52;7.50;;;;;;;;;;5024362;28;20033;-79
2022/10/03 07:03:36;;;;;;;14.50;7.35;;;;;;;;;;5025900;28;20479;-79
2022/10/03 07:06:16;;;;;;;13.63;7.15;;;;;;;;;;5028313;28;20021;-79
2022/10/03 07:09:04;;;;;;;14.43;7.60;;;;;;;;;;5026207;28;20025;-78
2022/10/03 07:11:45;;;;;;;23.02;8.48;;;;;;;;;;5024876;28;20017;-79
2022/10/03 07:14:20;;;;;;;16.40;8.07;;;;;;;;;;5028303;28;20021;-79
2022/10/03 07:16:51;;;;;;;10.32;7.47;;;;;;;;;;5029020;28;20026;-78
2022/10/03 07:19:37;;;;;;;14.25;7.20;;;;;;;;;;5027185;28;20072;-80
2022/10/03 07:22:30;;;;;;;12.93;7.25;;;;;;;;;;5027576;28;20014;-79
2022/10/03 07:25:24;;;;;;;10.85;5.90;;;;;;;;;;5016520;28;20039;-80
2022/10/03 07:27:52;;;;;;;17.25;6.55;;;;;;;;;;5030161;28;20030;-80
2022/10/03 07:30:21;;;;;;;12.70;6.20;;;;;;;;;;5011258;28;20033;-79
2022/10/03 07:33:05;;;;;;;14.43;5.47;;;;;;;;;;5030190;28;20029;-79
2022/10/03 07:38:56;;;;;;;14.95;5.95;;;;;;;;;;5029059;28;20495;-79
2022/10/03 07:41:55;;;;;;;10.93;5.72;;;;;;;;;;5028027;28;20076;-79
2022/10/03 07:44:41;;;;;;;11.18;5.25;;;;;;;;;;5002089;28;20497;-78
2022/10/03 07:47:31;;;;;;;13.63;6.45;;;;;;;;;;5033137;28;20024;-78
2022/10/03 07:50:35;;;;;;;11.27;5.22;;;;;;;;;;5033925;28;20018;-79
2022/10/03 07:53:13;;;;;;;14.68;5.68;;;;;;;;;;5033785;28;20045;-79
2022/10/03 07:56:06;;;;;;;9.15;5.65;;;;;;;;;;5035250;28;20574;-80
2022/10/03 07:58:34;;;;;;;16.48;6.60;;;;;;;;;;5017163;28;20049;-79
2022/10/03 08:01:37;;;;;;;10.55;5.55;;;;;;;;;;5046094;28;20039;-81
2022/10/03 08:04:21;;;;;;;10.23;4.93;;;;;;;;;;5053687;28;20025;-79
2022/10/03 08:06:55;;;;;;;7.82;5.00;;;;;;;;;;5051653;28;20028;-79
2022/10/03 08:09:35;;;;;;;12.82;5.20;;;;;;;;;;5051051;28;20092;-79
2022/10/03 08:12:32;;;;;;;13.48;5.32;;;;;;;;;;5050804;28;20022;-79
2022/10/03 08:15:19;;;;;;;6.18;3.85;;;;;;;;;;5052912;28;20065;-79
2022/10/03 08:18:05;;;;;;;7.00;4.13;;;;;;;;;;5052256;28;20026;-79
2022/10/03 08:20:42;;;;;;;10.40;4.75;;;;;;;;;;5047576;28;20013;-79
2022/10/03 08:23:42;;;;;;;8.88;4.78;;;;;;;;;;5051228;28;20044;-79
2022/10/03 08:26:21;;;;;;;14.45;5.43;;;;;;;;;;5038844;28;20095;-80
2022/10/03 08:28:59;;;;;;;9.45;4.72;;;;;;;;;;5032433;28;20018;-79
2022/10/03 08:31:37;;;;;;;12.02;5.30;;;;;;;;;;5030910;28;20032;-79
2022/10/03 08:34:19;;;;;;;13.27;5.30;;;;;;;;;;5028408;28;20108;-79
2022/10/03 08:37:21;;;;;;;7.05;4.72;;;;;;;;;;5024424;28;20041;-79
2022/10/03 08:40:03;;;;;;;11.30;5.03;;;;;;;;;;5029181;28;20017;-79
2022/10/03 08:42:34;;;;;;;18.02;4.78;;;;;;;;;;5031717;28;20033;-79
2022/10/03 08:45:18;;;;;;;8.38;4.85;;;;;;;;;;5031477;28;20021;-79
2022/10/03 08:48:09;;;;;;;11.63;4.55;;;;;;;;;;5029853;28;20475;-79
2022/10/03 08:51:04;;;;;;;13.25;4.90;;;;;;;;;;5023984;28;20467;-79
2022/10/03 08:53:38;;;;;;;8.32;4.00;;;;;;;;;;5026231;28;20563;-78
2022/10/03 08:56:45;;;;;;;8.43;3.63;;;;;;;;;;5031973;28;20033;-79
2022/10/03 08:59:47;;;;;;;9.38;4.00;;;;;;;;;;5031620;28;20051;-79
2022/10/03 09:02:31;;;;;;;;;;;;;;;;;;5029273;28;20029;-79
2022/10/03 09:05:05;;;;;;;8.93;4.68;;;;;;;;;;5030510;28;19917;-79
2022/10/03 09:08:02;;;;;;;9.43;4.90;;;;;;;;;;5030760;28;20101;-79
2022/10/03 09:10:46;;;;;;;12.85;5.03;;;;;;;;;;5029646;28;20040;-78
2022/10/03 09:13:55;;;;;;;8.48;5.40;;;;;;;;;;5030853;28;20021;-79
2022/10/03 09:16:45;;;;;;;10.32;4.85;;;;;;;;;;4974743;28;20040;-79
2022/10/03 09:19:32;;;;;;;12.20;4.60;;;;;;;;;;5030798;28;20460;-79
2022/10/03 09:22:21;;;;;;;11.52;5.13;;;;;;;;;;5030075;28;20455;-79
2022/10/03 09:25:04;;;;;;;10.50;4.85;;;;;;;;;;5008467;28;20059;-79
2022/10/03 09:27:57;;;;;;;12.15;4.47;;;;;;;;;;5030861;28;20467;-79
2022/10/03 09:30:38;;;;;;;9.20;4.78;;;;;;;;;;5031622;28;20021;-79
2022/10/03 09:33:38;;;;;;;9.57;4.70;;;;;;;;;;5031945;28;20399;-79
2022/10/03 09:36:28;;;;;;;10.43;5.05;;;;;;;;;;5037326;28;20026;-80
2022/10/03 09:39:36;;;;;;;10.15;5.10;;;;;;;;;;5038388;28;20029;-79
2022/10/03 09:42:20;;;;;;;12.32;5.32;;;;;;;;;;5038109;28;20033;-79
2022/10/03 09:45:11;;;;;;;9.32;4.75;;;;;;;;;;5036457;28;20041;-81
2022/10/03 09:48:04;;;;;;;13.32;4.85;;;;;;;;;;5034330;28;20026;-79
2022/10/03 09:50:29;;;;;;;13.75;5.60;;;;;;;;;;5037119;28;20049;-80
2022/10/03 09:53:03;;;;;;;8.88;4.95;;;;;;;;;;5041692;28;20041;-80
2022/10/03 09:55:31;;;;;;;10.15;5.00;;;;;;;;;;5041305;28;20036;-80
2022/10/03 09:58:22;;;;;;;7.45;4.70;;;;;;;;;;5040514;28;20029;-80
2022/10/03 10:01:19;;;;;;;7.90;4.72;;;;;;;;;;5040184;28;20097;-80
2022/10/03 10:03:45;;;;;;;10.52;4.38;;;;;;;;;;5007404;28;20033;-80
2022/10/03 10:06:13;;;;;;;10.20;4.80;;;;;;;;;;5041017;28;20025;-79
2022/10/03 10:09:19;;;;;;;15.00;5.63;;;;;;;;;;5040178;28;20052;-80
2022/10/03 10:12:11;;;;;;;12.32;5.18;;;;;;;;;;4960194;28;20028;-80
2022/10/03 10:15:10;;;;;;;15.85;4.97;;;;;;;;;;4964369;28;20043;-80
2022/10/03 10:17:55;;;;;;;11.43;5.25;;;;;;;;;;5030601;28;20048;-80
2022/10/03 10:20:48;;;;;;;9.65;4.57;;;;;;;;;;4999427;28;20109;-79
2022/10/03 10:23:42;;;;;;;7.88;4.75;;;;;;;;;;5037495;28;20514;-81
2022/10/03 10:26:26;;;;;;;9.65;4.82;;;;;;;;;;5036926;28;20039;-80
2022/10/03 10:28:54;;;;;;;7.13;4.05;;;;;;;;;;5035230;28;20017;-82
2022/10/03 10:31:35;;;;;;;9.00;4.18;;;;;;;;;;5016288;28;20072;-83
2022/10/03 10:34:37;;;;;;;14.23;4.97;;;;;;;;;;5014938;28;20128;-80
2022/10/03 10:37:40;;;;;;;6.93;3.90;;;;;;;;;;5033690;28;20032;-80
2022/10/03 10:40:57;;;;;;;11.40;3.72;;;;;;;;;;5032081;28;20022;-80
2022/10/03 10:43:31;;;;;;;11.68;3.60;;;;;;;;;;5032993;28;20017;-80
2022/10/03 10:46:08;;;;;;;10.82;3.13;;;;;;;;;;5033148;28;20030;-80
2022/10/03 10:48:55;;;;;;;6.75;3.22;;;;;;;;;;5031114;28;20076;-80
2022/10/03 10:51:26;;;;;;;4.93;3.00;;;;;;;;;;5028956;28;20022;-79
2022/10/03 10:54:24;;;;;;;12.23;3.92;;;;;;;;;;5029719;28;20037;-82
2022/10/03 10:57:03;;;;;;;9.75;3.83;;;;;;;;;;5031476;28;20045;-82
2022/10/03 10:59:47;;;;;;;8.95;3.28;;;;;;;;;;5031958;28;20053;-80
2022/10/03 11:02:39;;;;;;;5.60;2.30;;;;;;;;;;5033426;28;20030;-80
2022/10/03 11:05:37;;;;;;;7.90;3.65;;;;;;;;;;5030752;28;20036;-80
2022/10/03 11:08:30;;;;;;;6.65;3.25;;;;;;;;;;5032270;28;20025;-82
2022/10/03 11:11:30;;;;;;;7.88;3.28;;;;;;;;;;5023350;28;20033;-80
2022/10/03 11:13:59;;;;;;;5.45;2.70;;;;;;;;;;4948053;28;20066;-82
2022/10/03 11:16:47;;;;;;;6.00;2.65;;;;;;;;;;5019323;28;20041;-79
2022/10/03 11:19:42;;;;;;;6.70;2.50;;;;;;;;;;5038969;28;20049;-78
2022/10/03 11:22:42;;;;;;;9.05;3.05;;;;;;;;;;5048951;28;20014;-80
2022/10/03 11:25:23;;;;;;;5.38;2.60;;;;;;;;;;5035221;28;20025;-81
2022/10/03 11:28:11;;;;;;;4.60;2.83;;;;;;;;;;5012842;28;20161;-80
2022/10/03 11:31:01;;;;;;;8.10;2.72;;;;;;;;;;5012272;28;20483;-80
2022/10/03 11:34:03;;;;;;;15.27;2.53;;;;;;;;;;5021917;28;20081;-80
2022/10/03 11:37:09;;;;;;;10.10;2.72;;;;;;;;;;5008799;28;20090;-80
2022/10/03 11:39:42;;;;;;;11.15;2.47;;;;;;;;;;5032656;28;20026;-81
2022/10/03 11:42:19;;;;;;;6.35;2.50;;;;;;;;;;5030328;28;20036;-83
2022/10/03 11:44:55;;;;;;;9.27;2.40;;;;;;;;;;5034080;28;20083;-81
2022/10/03 11:47:30;;;;;;;3.47;2.15;;;;;;;;;;5014296;28;20033;-81
2022/10/03 11:50:20;;;;;;;7.90;2.35;;;;;;;;;;5014525;28;20040;-81
2022/10/03 11:52:57;;;;;;;6.50;2.35;;;;;;;;;;5036079;28;20021;-81
2022/10/03 11:55:50;;;;;;;7.68;2.88;;;;;;;;;;5019482;28;20068;-81
2022/10/03 11:58:26;;;;;;;6.50;2.97;;;;;;;;;;5034988;28;20594;-80
2022/10/03 12:01:42;;;;;;;10.25;2.53;;;;;;;;;;5017583;28;20706;-80
2022/10/03 12:04:13;;;;;;;5.93;2.15;;;;;;;;;;5009436;28;20594;-81
2022/10/03 12:10:19;;;;;;;9.85;2.80;;;;;;;;;;5037184;28;20095;-79
2022/10/03 12:12:50;;;;;;;7.05;2.50;;;;;;;;;;5011114;28;20116;-79
2022/10/03 12:15:21;;;;;;;5.17;2.40;;;;;;;;;;5039188;28;20431;-80
2022/10/03 12:18:11;;;;;;;8.48;2.28;;;;;;;;;;5041098;28;20318;-80
2022/10/03 12:21:02;;;;;;;7.32;2.38;;;;;;;;;;5007865;28;20116;-80
2022/10/03 12:24:07;;;;;;;5.72;2.33;;;;;;;;;;5019922;28;20056;-79
2022/10/03 12:26:44;;;;;;;7.40;2.13;;;;;;;;;;5042135;28;20025;-79
2022/10/03 12:29:14;;;;;;;7.78;2.60;;;;;;;;;;5038186;28;20022;-79
2022/10/03 12:32:05;;;;;;;2.20;1.83;;;;;;;;;;5040756;28;20056;-80
2022/10/03 12:34:42;;;;;;;7.38;2.30;;;;;;;;;;5024122;28;20045;-78
2022/10/03 12:37:32;;;;;;;5.97;2.40;;;;;;;;;;5039758;28;20022;-79
2022/10/03 12:40:09;;;;;;;7.47;2.42;;;;;;;;;;5035063;28;20037;-80
2022/10/03 12:42:37;;;;;;;5.57;2.15;;;;;;;;;;5003959;28;20037;-80
2022/10/03 12:45:08;;;;;;;4.07;2.47;;;;;;;;;;5032452;28;20056;-80
2022/10/03 12:47:44;;;;;;;4.28;2.30;;;;;;;;;;5037637;28;20044;-80
2022/10/03 12:50:47;;;;;;;7.57;2.70;;;;;;;;;;5032397;28;20403;-80
2022/10/03 12:53:18;;;;;;;3.30;2.05;;;;;;;;;;5034032;28;20025;-80
2022/10/03 12:56:00;;;;;;;10.77;2.90;;;;;;;;;;5043706;28;20388;-81
2022/10/03 12:58:57;;;;;;;7.05;2.17;;;;;;;;;;5065169;28;20280;-81
2022/10/03 13:01:50;;;;;;;8.40;2.72;;;;;;;;;;5050986;28;20033;-81
2022/10/03 13:04:46;;;;;;;7.22;2.20;;;;;;;;;;5045407;28;20037;-80
2022/10/03 13:07:43;;;;;;;9.73;2.00;;;;;;;;;;5041849;28;20021;-81
2022/10/03 13:10:18;;;;;;;5.13;1.95;;;;;;;;;;5024177;28;20030;-81
2022/10/03 13:12:48;;;;;;;4.38;2.38;;;;;;;;;;5042937;28;20029;-81
2022/10/03 13:15:41;;;;;;;6.97;2.20;;;;;;;;;;5045326;28;20017;-80
2022/10/03 13:18:27;;;;;;;4.35;2.47;;;;;;;;;;5043336;28;20021;-80
2022/10/03 13:21:18;;;;;;;3.80;2.20;;;;;;;;;;5034273;28;20061;-80
2022/10/03 13:23:45;;;;;;;5.90;2.13;;;;;;;;;;5014330;28;20125;-80
2022/10/03 13:26:30;;;;;;;3.53;1.52;;;;;;;;;;5044119;28;20041;-79
2022/10/03 13:29:12;;;;;;;7.15;2.13;;;;;;;;;;4995520;28;20059;-79
2022/10/03 13:32:00;;;;;;;;;;;;;;;;;;5017612;28;20113;-79
2022/10/03 13:34:30;;;;;;;7.95;2.05;;;;;;;;;;5018138;28;19928;-80
2022/10/03 13:37:08;;;;;;;3.55;1.77;;;;;;;;;;5021837;28;20881;-79
2022/10/03 13:39:42;;;;;;;2.75;1.75;;;;;;;;;;5017246;28;20037;-79
2022/10/03 13:42:15;;;;;;;3.28;1.88;;;;;;;;;;5028080;28;20111;-79
2022/10/03 13:44:54;;;;;;;4.53;1.50;;;;;;;;;;5015633;28;20045;-79
2022/10/03 13:47:29;;;;;;;7.82;2.10;;;;;;;;;;5013694;28;20036;-79
2022/10/03 13:50:01;;;;;;;3.60;1.75;;;;;;;;;;5011247;28;20030;-80
2022/10/03 13:52:26;;;;;;;;;;;;;;;;;;5017467;28;20030;-80
2022/10/03 13:55:08;;;;;;;6.82;1.75;;;;;;;;;;5021280;28;19921;-79
2022/10/03 13:58:06;;;;;;;3.05;1.70;;;;;;;;;;5021725;28;20032;-81
2022/10/03 14:01:00;;;;;;;3.63;1.83;;;;;;;;;;4993085;28;20259;-82
2022/10/03 14:03:40;;;;;;;4.35;1.77;;;;;;;;;;4988437;28;21185;-79
2022/10/03 14:06:32;;;;;;;1.90;1.63;;;;;;;;;;5023676;28;20025;-79
2022/10/03 14:09:16;;;;;;;2.65;1.55;;;;;;;;;;5039860;28;20523;-79
2022/10/03 14:11:44;;;;;;;6.93;1.95;;;;;;;;;;5035980;28;20022;-79
2022/10/03 14:14:33;;;;;;;5.82;1.50;;;;;;;;;;5042037;28;20032;-79
2022/10/03 14:17:07;;;;;;;4.18;1.90;;;;;;;;;;5042781;28;20025;-79
2022/10/03 14:19:38;;;;;;;3.60;1.90;;;;;;;;;;5040819;28;20025;-79
2022/10/03 14:22:42;;;;;;;6.40;1.80;;;;;;;;;;5040395;28;20017;-79
2022/10/03 14:25:22;;;;;;;4.57;1.70;;;;;;;;;;5039729;28;20021;-79
2022/10/03 14:27:54;;;;;;;3.55;1.55;;;;;;;;;;5040732;28;20050;-79
2022/10/03 14:30:25;;;;;;;4.30;1.70;;;;;;;;;;5043158;28;20044;-79
2022/10/03 14:33:05;;;;;;;6.20;1.80;;;;;;;;;;5044384;28;20093;-79
2022/10/03 14:36:05;;;;;;;2.60;1.65;;;;;;;;;;5046464;28;20025;-79
2022/10/03 14:38:59;;;;;;;5.65;2.22;;;;;;;;;;5041786;28;20049;-79
2022/10/03 14:41:46;;;;;;;2.17;1.40;;;;;;;;;;5038768;28;20030;-80
2022/10/03 14:44:22;;;;;;;10.05;2.10;;;;;;;;;;5037505;28;20032;-80
2022/10/03 14:46:57;;;;;;;3.60;1.80;;;;;;;;;;5019662;28;20025;-80
2022/10/03 14:49:31;;;;;;;3.53;1.70;;;;;;;;;;5029978;28;20021;-78
2022/10/03 14:52:31;;;;;;;2.70;1.70;;;;;;;;;;5030639;28;20026;-79
2022/10/03 14:55:06;;;;;;;8.50;2.33;;;;;;;;;;5028798;28;20283;-80
2022/10/03 14:57:34;;;;;;;3.30;1.40;;;;;;;;;;5037722;28;20033;-79
2022/10/03 15:00:00;;;;;;;11.43;1.80;;;;;;;;;;5038473;28;20040;-78
2022/10/03 15:02:43;;;;;;;10.18;2.00;;;;;;;;;;5037568;28;20037;-78
2022/10/03 15:05:31;;;;;;;3.28;1.63;;;;;;;;;;5039393;28;20017;-78
2022/10/03 15:07:57;;;;;;;3.38;1.50;;;;;;;;;;5014841;28;20026;-78
2022/10/03 15:10:26;;;;;;;11.48;1.67;;;;;;;;;;5036469;28;20018;-79
2022/10/03 15:13:01;;;;;;;5.00;1.70;;;;;;;;;;5037708;28;20022;-78
2022/10/03 15:15:34;;;;;;;10.68;2.03;;;;;;;;;;5037933;28;20025;-79
2022/10/03 15:18:03;;;;;;;5.57;1.67;;;;;;;;;;5037395;28;20037;-78
2022/10/03 15:20:35;;;;;;;6.03;1.60;;;;;;;;;;5019821;28;20097;-78
2022/10/03 15:23:05;;;;;;;1.98;1.65;;;;;;;;;;5036949;28;20403;-79
2022/10/03 15:25:36;;;;;;;4.75;1.50;;;;;;;;;;5021520;28;20025;-78
2022/10/03 15:28:11;;;;;;;6.00;1.88;;;;;;;;;;5036559;28;20069;-78
2022/10/03 15:30:39;;;;;;;2.83;1.58;;;;;;;;;;5037353;28;20025;-79
2022/10/03 15:33:15;;;;;;;2.40;1.50;;;;;;;;;;5037253;28;20079;-78
2022/10/03 15:35:45;;;;;;;6.40;1.85;;;;;;;;;;5039415;28;20120;-78
2022/10/03 15:38:16;;;;;;;3.20;1.80;;;;;;;;;;5038492;28;20120;-79
2022/10/03 15:40:51;;;;;;;4.03;1.58;;;;;;;;;;5045107;28;20072;-78
2022/10/03 15:43:34;;;;;;;4.63;1.70;;;;;;;;;;5029717;28;20018;-76
2022/10/03 15:46:04;;;;;;;3.00;1.75;;;;;;;;;;5048211;28;20036;-78
2022/10/03 15:48:30;;;;;;;6.80;2.20;;;;;;;;;;5044675;28;20032;-76
2022/10/03 15:50:57;;;;;;;5.10;1.73;;;;;;;;;;5018124;28;20034;-80
2022/10/03 15:53:34;;;;;;;4.70;1.90;;;;;;;;;;5022071;28;20052;-78
2022/10/03 15:56:22;;;;;;;2.83;2.05;;;;;;;;;;5045269;28;20033;-78
2022/10/03 15:58:54;;;;;;;3.47;1.60;;;;;;;;;;5047066;28;20071;-79
2022/10/03 16:01:27;;;;;;;4.82;2.28;;;;;;;;;;5040457;28;20045;-80
2022/10/03 16:04:00;;;;;;;4.68;1.75;;;;;;;;;;5045079;28;20033;-78
2022/10/03 16:07:00;;;;;;;4.63;1.77;;;;;;;;;;5043533;28;20021;-79
2022/10/03 16:09:45;;;;;;;6.05;2.10;;;;;;;;;;5036005;28;20025;-80
2022/10/03 16:12:33;;;;;;;7.68;2.28;;;;;;;;;;5039431;28;20009;-80
2022/10/03 16:15:22;;;;;;;4.70;1.73;;;;;;;;;;5040240;28;20017;-79
2022/10/03 16:17:55;;;;;;;4.32;2.30;;;;;;;;;;5039008;28;20345;-80
2022/10/03 16:20:33;;;;;;;6.93;1.80;;;;;;;;;;5036533;28;20037;-78
2022/10/03 16:23:13;;;;;;;4.05;1.70;;;;;;;;;;5036231;28;20555;-79
2022/10/03 16:25:56;;;;;;;4.70;1.60;;;;;;;;;;5039288;28;20039;-80
2022/10/03 16:28:32;;;;;;;4.05;1.88;;;;;;;;;;5038747;28;20060;-79
2022/10/03 16:31:03;;;;;;;5.00;2.05;;;;;;;;;;5035972;28;20648;-79
2022/10/03 16:33:39;;;;;;;1.98;1.48;;;;;;;;;;5040475;28;20094;-77
2022/10/03 16:36:07;;;;;;;8.05;1.98;;;;;;;;;;5019583;28;20056;-79
2022/10/03 16:38:36;;;;;;;6.25;1.70;;;;;;;;;;5038790;28;20026;-78
2022/10/03 16:41:23;;;;;;;2.97;1.92;;;;;;;;;;5040284;28;20026;-79
2022/10/03 16:44:03;;;;;;;3.85;1.77;;;;;;;;;;5037054;28;20030;-79
2022/10/03 16:46:38;;;;;;;2.60;1.95;;;;;;;;;;5020725;28;20045;-79
2022/10/03 16:52:14;;;;;;;5.88;1.77;;;;;;;;;;4978641;28;20109;-79
2022/10/03 16:54:41;;;;;;;7.57;2.20;;;;;;;;;;5025319;28;20395;-77
2022/10/03 16:57:20;;;;;;;6.85;2.63;;;;;;;;;;5023359;28;20029;-80
2022/10/03 16:59:48;;;;;;;4.85;2.45;;;;;;;;;;5035551;28;20037;-77
2022/10/03 17:02:18;;;;;;;5.53;2.03;;;;;;;;;;5033068;28;20017;-79
2022/10/03 17:04:48;;;;;;;5.63;2.35;;;;;;;;;;5037373;28;20483;-79
2022/10/03 17:07:29;;;;;;;5.95;2.28;;;;;;;;;;5036921;28;20039;-80
2022/10/03 17:09:56;;;;;;;6.93;2.33;;;;;;;;;;5035434;28;20031;-77